Ryoshin Maru — JD2464 — position and weather

sailwx.info

Track history (hours):
 
Tides and Currents Weather Stations Pressure Air Temp Water Temp Dewpoint Dewpoint Depression Visibility Wind Speed Wind Dir Waves Ship Positions

Ryoshin Maru

Last reported at 2018-Jul-16 07:43 UTC. Time now 2018-Jul-16 12:50 UTC.
Position N 33°50' E 135°03'.

Length 60 m; draft 3.6 m.

Type: Tanker. MMSI: 431000263.

Date/timePositionNaut miles runAvg speedWind from/ knotsBaromVisibWave heightAir tempDewpointWater temp
2018-Jul-16 07:43N 33°50' E 135°03'312.0
2018-Jul-16 07:30N 33°52' E 135°01'612.1
2018-Jul-16 07:00N 33°57' E 134°56'612.2
2018-Jul-16 06:30N 34°01' E 134°52'1312.7
2018-Jul-16 05:27N 34°12' E 134°41'912.5
2018-Jul-16 04:44N 34°17' E 134°33'312.1
2018-Jul-16 04:30N 34°18' E 134°30'612.0
2018-Jul-16 04:00N 34°20' E 134°23'611.9
2018-Jul-16 03:30N 34°23' E 134°16'  
2018-Jul-11 01:39N 34°42' E 134°36'11 2.4
2018-Jul-10 20:58N 34°41' E 134°49'1 1.1
2018-Jul-10 20:10N 34°41' E 134°48'0 0.0
2018-Jul-10 19:46N 34°41' E 134°48'0 0.0
2018-Jul-10 19:22N 34°41' E 134°48'8 8.7
2018-Jul-10 18:26N 34°37' E 134°57'511.4
2018-Jul-10 18:00N 34°36' E 135°03'5 9.9
2018-Jul-10 17:30N 34°32' E 135°05'612.6
2018-Jul-10 17:00N 34°26' E 135°03'612.0
2018-Jul-10 16:30N 34°20' E 135°01'510.6
2018-Jul-10 16:00N 34°15' E 134°60'611.6
2018-Jul-10 15:30N 34°09' E 134°60'611.4
2018-Jul-10 15:00N 34°03' E 135°00'612.3
2018-Jul-10 14:29N 33°57' E 135°01'7 0.2
2018-Jul-09 05:44N 33°51' E 135°03'311.1
2018-Jul-09 05:30N 33°53' E 135°01'611.5
2018-Jul-09 05:00N 33°57' E 134°57'811.5
2018-Jul-09 04:18N 34°03' E 134°50'2411.4
2018-Jul-09 02:13N 34°19' E 134°28'312.5
2018-Jul-09 01:59N 34°20' E 134°25'23 0.9
2018-Jul-08 00:46N 34°06' E 134°48'1012.6
2018-Jul-07 23:58N 33°59' E 134°55'612.5
2018-Jul-07 23:29N 33°54' E 134°60'4 0.1
2018-Jul-06 13:20N 33°51' E 135°03'10 8.3
2018-Jul-06 12:04N 34°01' E 135°00'1 8.4
2018-Jul-06 12:00N 34°02' E 135°00'4 8.8
2018-Jul-06 11:30N 34°06' E 134°60'5 9.3
2018-Jul-06 11:00N 34°11' E 134°59'5 9.3
2018-Jul-06 10:30N 34°15' E 134°59'4 8.7
2018-Jul-06 10:00N 34°20' E 134°59'510.0
2018-Jul-06 09:30N 34°25' E 135°00'510.6
2018-Jul-06 09:00N 34°30' E 135°02'510.7
2018-Jul-06 08:30N 34°35' E 135°03'6 9.2
2018-Jul-06 07:51N 34°37' E 134°56'  
Track history (hours):
 
Tides and Currents Weather Stations Pressure Air Temp Water Temp Dewpoint Dewpoint Depression Visibility Wind Speed Wind Dir Waves Ship Positions

Ryoshin Maru

Last reported at 2018-Jul-16 07:43 UTC. Time now 2018-Jul-16 12:50 UTC.
Position N 33°50' E 135°03'.

Length 60 m; draft 3.6 m.

Type: Tanker. MMSI: 431000263.

Date/timePositionNaut miles runAvg speedWind from/ knotsBaromVisibWave heightAir tempDewpointWater temp
2018-Jul-16 07:43N 33°50' E 135°03'312.0
2018-Jul-16 07:30N 33°52' E 135°01'612.1
2018-Jul-16 07:00N 33°57' E 134°56'612.2
2018-Jul-16 06:30N 34°01' E 134°52'1312.7
2018-Jul-16 05:27N 34°12' E 134°41'912.5
2018-Jul-16 04:44N 34°17' E 134°33'312.1
2018-Jul-16 04:30N 34°18' E 134°30'612.0
2018-Jul-16 04:00N 34°20' E 134°23'611.9
2018-Jul-16 03:30N 34°23' E 134°16'  
2018-Jul-11 01:39N 34°42' E 134°36'11 2.4
2018-Jul-10 20:58N 34°41' E 134°49'1 1.1
2018-Jul-10 20:10N 34°41' E 134°48'0 0.0
2018-Jul-10 19:46N 34°41' E 134°48'0 0.0
2018-Jul-10 19:22N 34°41' E 134°48'8 8.7
2018-Jul-10 18:26N 34°37' E 134°57'511.4
2018-Jul-10 18:00N 34°36' E 135°03'5 9.9
2018-Jul-10 17:30N 34°32' E 135°05'612.6
2018-Jul-10 17:00N 34°26' E 135°03'612.0
2018-Jul-10 16:30N 34°20' E 135°01'510.6
2018-Jul-10 16:00N 34°15' E 134°60'611.6
2018-Jul-10 15:30N 34°09' E 134°60'611.4
2018-Jul-10 15:00N 34°03' E 135°00'612.3
2018-Jul-10 14:29N 33°57' E 135°01'7 0.2
2018-Jul-09 05:44N 33°51' E 135°03'311.1
2018-Jul-09 05:30N 33°53' E 135°01'611.5
2018-Jul-09 05:00N 33°57' E 134°57'811.5
2018-Jul-09 04:18N 34°03' E 134°50'2411.4
2018-Jul-09 02:13N 34°19' E 134°28'312.5
2018-Jul-09 01:59N 34°20' E 134°25'23 0.9
2018-Jul-08 00:46N 34°06' E 134°48'1012.6
2018-Jul-07 23:58N 33°59' E 134°55'612.5
2018-Jul-07 23:29N 33°54' E 134°60'4 0.1
2018-Jul-06 13:20N 33°51' E 135°03'10 8.3
2018-Jul-06 12:04N 34°01' E 135°00'1 8.4
2018-Jul-06 12:00N 34°02' E 135°00'4 8.8
2018-Jul-06 11:30N 34°06' E 134°60'5 9.3
2018-Jul-06 11:00N 34°11' E 134°59'5 9.3
2018-Jul-06 10:30N 34°15' E 134°59'4 8.7
2018-Jul-06 10:00N 34°20' E 134°59'510.0
2018-Jul-06 09:30N 34°25' E 135°00'510.6
2018-Jul-06 09:00N 34°30' E 135°02'510.7
2018-Jul-06 08:30N 34°35' E 135°03'6 9.2
2018-Jul-06 07:51N 34°37' E 134°56'  

Dump ship's entire track history